Terminal Aerodrome Forecast
Issued by NWS

Home | Current Version | Previous Version | Text Only | Print | Product List | Glossary On
Versions: 1 2 3 4 5 6 7 8 9 10 11 12
100
FTUS44 KTSA 192320
TAFRVS
TAF
KRVS 192320Z 2000/2024 17011KT P6SM BKN250
     FM200600 18010G16KT P6SM BKN015 WS020/21040KT
     FM201700 18014G22KT P6SM BKN025
     FM202100 18014G22KT P6SM BKN040=

USA.gov is the U.S. government's official web portal to all federal, state and local government web resources and services.